createdAt,value
2019-02-12T00:01:32.496Z,-0.57
2019-02-12T00:04:38.929Z,-0.57
2019-02-12T00:07:45.286Z,-0.44
2019-02-12T00:10:51.554Z,-0.43
2019-02-12T00:13:57.834Z,-0.43
2019-02-12T00:17:04.124Z,-0.56
2019-02-12T00:20:10.506Z,-0.47
2019-02-12T00:23:16.911Z,-0.45
2019-02-12T00:26:23.325Z,-0.43
2019-02-12T00:29:29.583Z,-0.47
2019-02-12T00:32:36.046Z,-0.48
2019-02-12T00:35:42.370Z,-0.46
2019-02-12T00:38:48.729Z,-0.50
2019-02-12T00:41:55.200Z,-0.42
2019-02-12T00:45:01.509Z,-0.42
2019-02-12T00:48:07.743Z,-0.61
2019-02-12T00:51:17.741Z,-0.51
2019-02-12T00:54:24.223Z,-0.52
2019-02-12T00:57:30.666Z,-0.50
2019-02-12T01:00:37.020Z,-0.48
2019-02-12T01:03:43.311Z,-0.48
2019-02-12T01:06:50.996Z,-0.52
2019-02-12T01:09:57.524Z,-0.43
2019-02-12T01:13:03.947Z,-0.44
2019-02-12T01:16:10.324Z,-0.46
2019-02-12T01:19:16.588Z,-0.56
2019-02-12T01:22:22.849Z,-0.49
2019-02-12T01:25:29.213Z,-0.52
2019-02-12T01:28:35.550Z,-0.51
2019-02-12T01:31:41.969Z,-0.44
2019-02-12T01:34:48.285Z,-0.49
2019-02-12T01:37:54.943Z,-0.60
2019-02-12T01:41:01.271Z,-0.51
2019-02-12T01:44:07.624Z,-0.62
2019-02-12T01:47:14.019Z,-0.67
2019-02-12T01:50:20.278Z,-0.63
2019-02-12T01:53:26.622Z,-0.52
2019-02-12T01:56:33.035Z,-0.68
2019-02-12T01:59:39.374Z,-0.65
2019-02-12T02:02:45.749Z,-0.65
2019-02-12T02:05:52.063Z,-0.60
2019-02-12T02:08:58.637Z,-0.66
2019-02-12T02:12:05.118Z,-0.79
2019-02-12T02:15:11.657Z,-0.71
2019-02-12T02:18:18.094Z,-0.72
2019-02-12T02:21:24.361Z,-0.76
2019-02-12T02:24:30.641Z,-0.74
2019-02-12T02:27:37.053Z,-0.72
2019-02-12T02:30:43.431Z,-0.90
2019-02-12T02:33:49.878Z,-0.91
2019-02-12T02:36:56.175Z,-0.91
2019-02-12T02:40:02.510Z,-0.92
2019-02-12T02:43:08.907Z,-0.82
2019-02-12T02:46:15.179Z,-0.93
2019-02-12T02:49:21.563Z,-0.91
2019-02-12T02:52:27.942Z,-0.82
2019-02-12T02:55:34.189Z,-0.90
2019-02-12T02:58:41.670Z,-0.92
2019-02-12T03:01:48.015Z,-0.77
2019-02-12T03:04:54.412Z,-0.91
2019-02-12T03:08:00.678Z,-1.43
2019-02-12T03:11:08.104Z,-1.00
2019-02-12T03:14:15.461Z,-0.97
2019-02-12T03:17:22.011Z,-1.00
2019-02-12T03:20:28.769Z,-1.05
2019-02-12T03:23:35.047Z,-1.03
2019-02-12T03:26:41.411Z,-1.02
2019-02-12T03:29:47.800Z,-1.05
2019-02-12T03:32:54.175Z,-1.08
2019-02-12T03:36:00.477Z,-1.01
2019-02-12T03:39:06.939Z,-0.99
2019-02-12T03:42:13.195Z,-1.06
2019-02-12T03:45:19.546Z,-1.11
2019-02-12T03:48:25.990Z,-1.01
2019-02-12T03:51:32.316Z,-1.05
2019-02-12T03:54:38.651Z,-0.94
2019-02-12T03:57:44.928Z,-1.00
2019-02-12T04:00:51.252Z,-1.01
2019-02-12T04:03:57.663Z,-1.08
2019-02-12T04:07:04.088Z,-1.08
2019-02-12T04:10:10.361Z,-1.10
2019-02-12T04:13:16.718Z,-1.05
2019-02-12T04:16:23.069Z,-1.02
2019-02-12T04:19:29.383Z,-1.16
2019-02-12T04:22:36.791Z,-1.29
2019-02-12T04:25:43.070Z,-1.08
2019-02-12T04:28:49.398Z,-1.13
2019-02-12T04:31:55.688Z,-1.16
2019-02-12T04:35:01.999Z,-1.32
2019-02-12T04:38:08.408Z,-1.29
2019-02-12T04:41:14.767Z,-1.29
2019-02-12T04:44:21.029Z,-1.33
2019-02-12T04:47:27.367Z,-1.24
2019-02-12T04:50:33.710Z,-1.27
2019-02-12T04:53:40.088Z,-1.31
2019-02-12T04:56:46.372Z,-1.31
2019-02-12T04:59:52.715Z,-1.37
2019-02-12T05:02:59.041Z,-1.44
2019-02-12T05:06:05.405Z,-1.36
2019-02-12T05:09:40.210Z,-1.37
2019-02-12T05:12:52.506Z,-1.46
2019-02-12T05:15:59.033Z,-1.41
2019-02-12T05:19:05.422Z,-1.45
2019-02-12T05:22:11.843Z,-1.61
2019-02-12T05:25:18.148Z,-1.55
2019-02-12T05:28:24.432Z,-1.80
2019-02-12T05:31:30.770Z,-1.59
2019-02-12T05:34:37.068Z,-1.60
2019-02-12T05:37:43.437Z,-1.69
2019-02-12T05:40:49.725Z,-1.71
2019-02-12T05:43:56.059Z,-1.76
2019-02-12T05:47:02.420Z,-1.78
2019-02-12T05:50:10.978Z,-1.83
2019-02-12T05:53:17.659Z,-1.78
2019-02-12T05:56:24.201Z,-1.84
2019-02-12T05:59:30.536Z,-2.01
2019-02-12T06:02:37.971Z,-1.90
2019-02-12T06:05:44.304Z,-1.93
2019-02-12T06:08:51.740Z,-2.00
2019-02-12T06:11:58.091Z,-2.04
2019-02-12T06:15:04.829Z,-2.06
2019-02-12T06:18:11.283Z,-1.98
2019-02-12T06:21:18.087Z,-1.92
2019-02-12T06:24:24.672Z,-1.97
2019-02-12T06:27:31.077Z,-1.94
2019-02-12T06:30:37.414Z,-1.98
2019-02-12T06:33:43.818Z,-2.02
2019-02-12T06:36:50.137Z,-2.07
2019-02-12T06:39:56.647Z,-2.07
2019-02-12T06:43:03.015Z,-1.95
2019-02-12T06:46:12.637Z,-1.91
2019-02-12T06:49:20.633Z,-1.95
2019-02-12T06:52:31.216Z,-1.90
2019-02-12T06:55:39.199Z,-1.98
2019-02-12T06:59:00.577Z,-1.94
2019-02-12T07:02:42.901Z,-1.99
2019-02-12T07:06:19.826Z,-1.99
2019-02-12T07:09:51.566Z,-2.05
2019-02-12T07:13:18.503Z,-1.98
2019-02-12T07:17:11.035Z,-1.94
2019-02-12T07:21:19.763Z,-1.94
2019-02-12T07:25:05.801Z,-1.90
2019-02-12T07:28:30.559Z,-1.77
2019-02-12T07:32:24.851Z,-1.56
2019-02-12T07:36:17.970Z,-1.47
2019-02-12T07:40:16.019Z,-1.40
2019-02-12T07:44:14.482Z,-1.40
2019-02-12T07:48:39.153Z,-1.38
2019-02-12T07:52:30.538Z,-1.29
2019-02-12T07:56:18.815Z,-1.14
2019-02-12T08:00:04.806Z,-1.23
2019-02-12T08:03:56.793Z,-1.35
2019-02-12T08:07:23.862Z,-1.29
2019-02-12T08:11:20.282Z,-1.16
2019-02-12T08:15:21.291Z,-1.17
2019-02-12T08:18:54.776Z,-1.26
2019-02-12T08:22:40.069Z,-1.23
2019-02-12T08:26:13.560Z,-1.02
2019-02-12T08:29:47.338Z,-0.81
2019-02-12T08:33:13.530Z,-0.61
2019-02-12T08:36:43.480Z,-0.45
2019-02-12T08:40:27.113Z,-0.42
2019-02-12T08:44:10.734Z,-0.33
2019-02-12T08:48:12.424Z,-0.07
2019-02-12T08:51:43.862Z,0.28
2019-02-12T08:55:23.567Z,0.64
2019-02-12T08:58:38.244Z,0.92
2019-02-12T09:02:04.856Z,1.30
2019-02-12T09:05:53.887Z,1.64
2019-02-12T09:09:42.698Z,1.90
2019-02-12T09:13:10.221Z,1.86
2019-02-12T09:17:15.962Z,2.17
2019-02-12T09:21:06.455Z,2.29
2019-02-12T09:24:35.132Z,2.43
2019-02-12T09:28:28.607Z,2.79
2019-02-12T09:32:19.311Z,2.50
2019-02-12T09:35:40.321Z,2.26
2019-02-12T09:39:01.895Z,2.27
2019-02-12T09:42:39.840Z,2.32
2019-02-12T09:46:24.150Z,2.76
2019-02-12T09:50:01.115Z,1.91
2019-02-12T09:53:35.419Z,2.81
2019-02-12T09:57:13.640Z,3.17
2019-02-12T10:00:47.913Z,2.72
2019-02-12T10:04:31.323Z,3.38
2019-02-12T10:08:12.749Z,3.47
2019-02-12T10:12:09.558Z,3.11
2019-02-12T10:15:45.716Z,2.67
2019-02-12T10:19:06.822Z,2.53
2019-02-12T10:22:32.451Z,2.53
2019-02-12T10:25:46.324Z,2.86
2019-02-12T10:29:24.037Z,3.14
2019-02-12T10:32:28.857Z,2.86
2019-02-12T10:35:38.334Z,2.79
2019-02-12T10:38:46.755Z,3.25
2019-02-12T10:41:53.005Z,3.17
2019-02-12T10:44:59.377Z,3.30
2019-02-12T10:48:05.878Z,3.02
2019-02-12T10:51:12.609Z,3.38
2019-02-12T10:54:27.924Z,3.36
2019-02-12T10:57:37.924Z,2.73
2019-02-12T11:00:44.261Z,3.02
2019-02-12T11:03:52.445Z,2.01
2019-02-12T11:06:58.845Z,1.91
2019-02-12T11:10:05.485Z,1.88
2019-02-12T11:13:13.455Z,1.38
2019-02-12T11:16:19.795Z,1.63
2019-02-12T11:19:29.183Z,1.37
2019-02-12T11:22:35.505Z,1.35
2019-02-12T11:25:48.602Z,1.31
2019-02-12T11:28:55.345Z,0.99
2019-02-12T11:32:01.718Z,0.99
2019-02-12T11:35:08.780Z,0.97
2019-02-12T11:38:15.223Z,0.67
2019-02-12T11:41:21.650Z,0.95
2019-02-12T11:44:28.048Z,1.06
2019-02-12T11:47:34.438Z,1.08
2019-02-12T11:50:40.686Z,1.30
2019-02-12T11:53:47.858Z,1.26
2019-02-12T11:56:56.013Z,1.32
2019-02-12T12:00:02.583Z,1.21
2019-02-12T12:03:09.080Z,1.13
2019-02-12T12:06:15.553Z,1.26
2019-02-12T12:09:23.462Z,1.30
2019-02-12T12:12:32.131Z,1.48
2019-02-12T12:15:44.449Z,1.80
2019-02-12T12:18:50.852Z,2.00
2019-02-12T12:21:57.295Z,2.14
2019-02-12T12:25:03.626Z,2.32
2019-02-12T12:28:10.009Z,2.57
2019-02-12T12:31:19.449Z,2.66
2019-02-12T12:34:25.774Z,2.76
2019-02-12T12:37:32.278Z,2.67
2019-02-12T12:40:38.522Z,2.95
2019-02-12T12:43:44.953Z,2.75
2019-02-12T12:46:51.634Z,2.84
2019-02-12T12:49:59.182Z,2.91
2019-02-12T12:53:05.558Z,3.09
2019-02-12T12:56:11.872Z,3.23
2019-02-12T12:59:20.499Z,3.16
2019-02-12T13:02:28.824Z,3.26
2019-02-12T13:05:35.032Z,3.68
2019-02-12T13:08:41.384Z,3.83
2019-02-12T13:11:50.862Z,3.64
2019-02-12T13:14:58.674Z,3.89
2019-02-12T13:18:05.061Z,3.88
2019-02-12T13:21:11.298Z,4.19
2019-02-12T13:24:19.016Z,4.41
2019-02-12T13:27:25.291Z,3.43
2019-02-12T13:30:34.580Z,3.60
2019-02-12T13:33:44.106Z,3.35
2019-02-12T13:36:50.482Z,2.91
2019-02-12T13:39:56.799Z,2.00
2019-02-12T13:43:07.789Z,2.11
2019-02-12T13:46:15.811Z,2.33
2019-02-12T13:49:24.622Z,2.30
2019-02-12T13:52:33.766Z,2.42
2019-02-12T13:55:40.101Z,1.89
2019-02-12T13:58:46.443Z,1.79
2019-02-12T14:01:54.446Z,1.99
2019-02-12T14:05:01.923Z,1.83
2019-02-12T14:08:08.529Z,1.67
2019-02-12T14:11:18.206Z,1.63
2019-02-12T14:14:25.986Z,1.35
2019-02-12T14:17:34.715Z,1.33
2019-02-12T14:20:43.699Z,1.45
2019-02-12T14:23:50.156Z,1.03
2019-02-12T14:26:58.091Z,1.12
2019-02-12T14:30:07.927Z,0.86
2019-02-12T14:33:17.383Z,0.74
2019-02-12T14:36:26.844Z,0.81
2019-02-12T14:39:34.358Z,0.79
2019-02-12T14:42:40.682Z,0.92
2019-02-12T14:45:48.521Z,0.66
2019-02-12T14:49:09.776Z,0.76
2019-02-12T14:52:21.555Z,0.70
2019-02-12T14:55:33.737Z,0.76
2019-02-12T14:58:40.509Z,0.70
2019-02-12T15:01:46.938Z,0.61
2019-02-12T15:05:00.564Z,0.55
2019-02-12T15:08:08.413Z,0.58
2019-02-12T15:11:14.769Z,0.59
2019-02-12T15:14:23.264Z,0.58
2019-02-12T15:17:29.574Z,0.56
2019-02-12T15:20:35.937Z,0.42
2019-02-12T15:23:44.774Z,0.50
2019-02-12T15:26:51.201Z,-0.09
2019-02-12T15:29:57.538Z,0.30
2019-02-12T15:33:05.463Z,-0.88
2019-02-12T15:36:12.070Z,0.32
2019-02-12T15:39:20.794Z,0.27
2019-02-12T15:42:29.827Z,0.25
2019-02-12T15:45:36.150Z,0.12
2019-02-12T15:48:46.851Z,0.28
2019-02-12T15:51:54.664Z,0.14
2019-02-12T15:55:01.518Z,0.22
2019-02-12T15:58:08.139Z,0.24
2019-02-12T16:01:14.548Z,0.14
2019-02-12T16:04:21.666Z,0.04
2019-02-12T16:07:32.151Z,0.10
2019-02-12T16:10:42.009Z,0.18
2019-02-12T16:13:48.415Z,0.11
2019-02-12T16:16:54.965Z,0.10
2019-02-12T16:20:03.462Z,-0.04
2019-02-12T16:23:09.805Z,0.01
2019-02-12T16:26:16.176Z,-0.01
2019-02-12T16:29:22.721Z,0.00
2019-02-12T16:32:29.193Z,-0.01
2019-02-12T16:35:35.572Z,-0.02
2019-02-12T16:38:42.124Z,-0.10
2019-02-12T16:41:50.119Z,-0.07
2019-02-12T16:44:56.463Z,-0.04
2019-02-12T16:48:02.744Z,-0.11
2019-02-12T16:51:09.120Z,-0.08
2019-02-12T16:54:15.554Z,0.02
2019-02-12T16:57:21.938Z,-0.06
2019-02-12T17:00:28.297Z,0.00
2019-02-12T17:03:38.346Z,0.02
2019-02-12T17:06:44.883Z,-0.02
2019-02-12T17:09:52.517Z,-0.07
2019-02-12T17:12:59.976Z,-0.10
2019-02-12T17:16:09.134Z,-0.10
2019-02-12T17:19:17.035Z,-0.05
2019-02-12T17:22:25.289Z,-0.05
2019-02-12T17:25:33.378Z,0.02
2019-02-12T17:28:41.771Z,-0.05
2019-02-12T17:31:48.791Z,-0.04
2019-02-12T17:35:01.200Z,0.03
2019-02-12T17:38:03.098Z,-0.09
2019-02-12T17:41:09.642Z,-0.04
2019-02-12T17:44:15.925Z,-0.15
2019-02-12T17:47:22.866Z,-0.13
2019-02-12T17:50:31.179Z,-0.12
2019-02-12T17:53:39.614Z,-0.13
2019-02-12T17:56:48.979Z,-0.12
2019-02-12T17:59:55.851Z,-0.21
2019-02-12T18:03:03.022Z,-0.09
2019-02-12T18:06:15.650Z,-0.23
2019-02-12T18:09:42.408Z,-0.13
2019-02-12T18:12:54.516Z,-0.14
2019-02-12T18:16:00.978Z,-0.18
2019-02-12T18:19:07.258Z,-0.21
2019-02-12T18:22:13.609Z,-0.27
2019-02-12T18:25:19.945Z,-0.27
2019-02-12T18:28:26.200Z,-0.23
2019-02-12T18:31:32.645Z,-0.32
2019-02-12T18:34:39.019Z,-0.23
2019-02-12T18:37:45.488Z,-0.22
2019-02-12T18:40:51.806Z,-0.23
2019-02-12T18:43:58.327Z,-0.13
2019-02-12T18:47:04.782Z,-0.38
2019-02-12T18:50:12.072Z,-0.26
2019-02-12T18:53:18.579Z,-0.29
2019-02-12T18:56:25.096Z,-0.24
2019-02-12T18:59:31.430Z,-0.19
2019-02-12T19:02:37.716Z,-0.31
2019-02-12T19:05:44.075Z,-0.40
2019-02-12T19:08:50.538Z,-0.37
2019-02-12T19:11:57.016Z,-0.19
2019-02-12T19:15:04.411Z,-0.26
2019-02-12T19:18:18.194Z,-0.39
2019-02-12T19:21:24.593Z,-0.36
2019-02-12T19:24:31.044Z,-0.36
2019-02-12T19:27:37.504Z,-0.35
2019-02-12T19:30:43.848Z,-0.43
2019-02-12T19:33:50.286Z,-0.35
2019-02-12T19:36:56.743Z,-0.35
2019-02-12T19:40:03.091Z,-0.52
2019-02-12T19:43:09.406Z,-0.34
2019-02-12T19:46:18.002Z,-0.41
2019-02-12T19:49:24.392Z,-0.41
2019-02-12T19:52:30.881Z,-0.48
2019-02-12T19:55:39.081Z,-0.57
2019-02-12T19:58:48.090Z,-0.48
2019-02-12T20:01:54.508Z,-0.61
2019-02-12T20:05:00.949Z,-0.60
2019-02-12T20:08:08.723Z,-0.64
2019-02-12T20:11:15.252Z,-0.41
2019-02-12T20:14:22.967Z,-0.42
2019-02-12T20:17:29.361Z,-0.30
2019-02-12T20:20:35.754Z,-0.45
2019-02-12T20:23:42.119Z,-0.61
2019-02-12T20:26:48.515Z,-0.45
2019-02-12T20:29:54.905Z,-0.49
2019-02-12T20:33:01.299Z,-0.40
2019-02-12T20:36:08.454Z,-0.28
2019-02-12T20:39:14.915Z,-0.47
2019-02-12T20:42:24.227Z,-0.56
2019-02-12T20:45:30.928Z,-0.48
2019-02-12T20:48:37.498Z,-0.46
2019-02-12T20:51:44.202Z,-0.47
2019-02-12T20:54:50.577Z,-0.46
2019-02-12T20:57:58.044Z,-0.39
2019-02-12T21:01:04.659Z,-0.44
2019-02-12T21:04:13.163Z,-0.33
2019-02-12T21:07:20.581Z,-0.41
2019-02-12T21:10:28.242Z,-0.36
2019-02-12T21:13:34.506Z,-0.36
2019-02-12T21:16:40.840Z,-0.40
2019-02-12T21:19:48.236Z,-0.40
2019-02-12T21:22:54.710Z,-0.33
2019-02-12T21:26:01.010Z,-0.28
2019-02-12T21:29:07.364Z,-0.21
2019-02-12T21:32:13.667Z,-0.25
2019-02-12T21:35:21.593Z,-0.23
2019-02-12T21:38:28.048Z,-0.17
2019-02-12T21:41:34.558Z,-0.09
2019-02-12T21:44:41.127Z,-0.09
2019-02-12T21:47:47.850Z,-0.01
2019-02-12T21:50:56.063Z,-0.07
2019-02-12T21:54:02.492Z,-0.02
2019-02-12T21:57:08.928Z,-0.02
2019-02-12T22:00:15.965Z,-0.14
2019-02-12T22:03:22.626Z,-0.14
2019-02-12T22:06:29.089Z,-0.10
2019-02-12T22:09:35.432Z,-0.28
2019-02-12T22:12:41.824Z,-0.12
2019-02-12T22:15:48.175Z,-0.13
2019-02-12T22:18:54.524Z,-0.14
2019-02-12T22:22:00.874Z,0.02
2019-02-12T22:25:07.558Z,-0.19
2019-02-12T22:28:13.987Z,-0.17
2019-02-12T22:31:20.413Z,-0.01
2019-02-12T22:34:28.342Z,0.00
2019-02-12T22:37:34.641Z,0.05
2019-02-12T22:40:41.016Z,0.04
2019-02-12T22:43:47.966Z,0.04
2019-02-12T22:46:54.247Z,0.02
2019-02-12T22:50:00.448Z,0.09
2019-02-12T22:53:07.007Z,0.19
2019-02-12T22:56:13.351Z,0.13
2019-02-12T22:59:20.893Z,0.19
2019-02-12T23:02:27.310Z,0.19
2019-02-12T23:05:33.646Z,0.29
2019-02-12T23:08:40.003Z,0.09
2019-02-12T23:11:46.322Z,0.13
2019-02-12T23:14:52.683Z,0.13
2019-02-12T23:17:59.117Z,0.11
2019-02-12T23:21:05.466Z,0.16
2019-02-12T23:24:11.869Z,0.21
2019-02-12T23:27:33.320Z,0.11
2019-02-12T23:30:39.558Z,0.21
2019-02-12T23:33:45.898Z,0.30
2019-02-12T23:36:52.175Z,0.25
2019-02-12T23:39:58.533Z,0.36
2019-02-12T23:43:04.958Z,0.41
2019-02-12T23:46:11.309Z,0.43
2019-02-12T23:49:17.574Z,0.42
2019-02-12T23:52:23.958Z,0.48
2019-02-12T23:55:30.399Z,0.47
2019-02-12T23:58:36.651Z,0.51
